sensor_id;sensor_type;location;lat;lon;timestamp;P1;durP1;ratioP1;P2;durP2;ratioP2
47513;SDS011;33951;51.988;5.910;2022-11-11T00:02:15;24.02;;;10.57;;
47513;SDS011;33951;51.988;5.910;2022-11-11T00:04:41;27.63;;;17.75;;
47513;SDS011;33951;51.988;5.910;2022-11-11T00:07:09;46.60;;;35.70;;
47513;SDS011;33951;51.988;5.910;2022-11-11T00:09:35;41.10;;;30.73;;
47513;SDS011;33951;51.988;5.910;2022-11-11T00:12:00;29.65;;;21.73;;
47513;SDS011;33951;51.988;5.910;2022-11-11T00:14:29;25.13;;;17.40;;
47513;SDS011;33951;51.988;5.910;2022-11-11T00:47:38;23.02;;;12.48;;
47513;SDS011;33951;51.988;5.910;2022-11-11T06:00:32;27.17;;;18.50;;
47513;SDS011;33951;51.988;5.910;2022-11-11T06:03:01;24.40;;;18.33;;
47513;SDS011;33951;51.988;5.910;2022-11-11T06:05:31;31.35;;;18.40;;
47513;SDS011;33951;51.988;5.910;2022-11-11T06:07:59;26.20;;;18.15;;
47513;SDS011;33951;51.988;5.910;2022-11-11T06:10:25;26.50;;;17.23;;
47513;SDS011;33951;51.988;5.910;2022-11-11T06:13:04;27.15;;;17.75;;
47513;SDS011;33951;51.988;5.910;2022-11-11T06:15:42;24.90;;;17.35;;
47513;SDS011;33951;51.988;5.910;2022-11-11T06:18:08;28.70;;;19.35;;
47513;SDS011;33951;51.988;5.910;2022-11-11T06:23:13;29.55;;;18.42;;
47513;SDS011;33951;51.988;5.910;2022-11-11T06:25:47;30.05;;;18.10;;
47513;SDS011;33951;51.988;5.910;2022-11-11T06:28:31;25.63;;;17.52;;
47513;SDS011;33951;51.988;5.910;2022-11-11T06:30:58;29.38;;;18.73;;
47513;SDS011;33951;51.988;5.910;2022-11-11T06:33:26;32.35;;;19.08;;
47513;SDS011;33951;51.988;5.910;2022-11-11T06:35:55;30.55;;;18.98;;
47513;SDS011;33951;51.988;5.910;2022-11-11T06:38:26;29.08;;;19.23;;
47513;SDS011;33951;51.988;5.910;2022-11-11T06:40:56;31.67;;;20.45;;
47513;SDS011;33951;51.988;5.910;2022-11-11T06:43:24;30.58;;;19.65;;
47513;SDS011;33951;51.988;5.910;2022-11-11T06:45:53;27.13;;;18.63;;
47513;SDS011;33951;51.988;5.910;2022-11-11T06:48:25;30.67;;;20.63;;
47513;SDS011;33951;51.988;5.910;2022-11-11T06:51:07;27.92;;;19.15;;
47513;SDS011;33951;51.988;5.910;2022-11-11T06:53:43;27.77;;;20.83;;
47513;SDS011;33951;51.988;5.910;2022-11-11T06:59:30;28.17;;;20.40;;
47513;SDS011;33951;51.988;5.910;2022-11-11T07:02:40;32.88;;;22.35;;
47513;SDS011;33951;51.988;5.910;2022-11-11T07:05:15;28.98;;;21.50;;
47513;SDS011;33951;51.988;5.910;2022-11-11T07:07:48;36.08;;;22.33;;
47513;SDS011;33951;51.988;5.910;2022-11-11T07:10:33;30.88;;;22.00;;
47513;SDS011;33951;51.988;5.910;2022-11-11T07:13:04;34.33;;;23.10;;
47513;SDS011;33951;51.988;5.910;2022-11-11T07:15:33;34.83;;;22.83;;
47513;SDS011;33951;51.988;5.910;2022-11-11T07:18:14;36.25;;;23.92;;
47513;SDS011;33951;51.988;5.910;2022-11-11T07:20:47;36.25;;;24.02;;
47513;SDS011;33951;51.988;5.910;2022-11-11T07:23:21;32.05;;;22.63;;
47513;SDS011;33951;51.988;5.910;2022-11-11T07:25:56;42.13;;;23.15;;
47513;SDS011;33951;51.988;5.910;2022-11-11T07:28:33;34.67;;;23.15;;
47513;SDS011;33951;51.988;5.910;2022-11-11T07:31:14;31.15;;;23.00;;
47513;SDS011;33951;51.988;5.910;2022-11-11T07:36:14;34.80;;;24.00;;
47513;SDS011;33951;51.988;5.910;2022-11-11T07:38:45;40.92;;;26.80;;
47513;SDS011;33951;51.988;5.910;2022-11-11T07:41:22;38.42;;;26.85;;
47513;SDS011;33951;51.988;5.910;2022-11-11T07:43:55;35.72;;;25.70;;
47513;SDS011;33951;51.988;5.910;2022-11-11T07:46:27;35.80;;;27.25;;
47513;SDS011;33951;51.988;5.910;2022-11-11T07:56:03;41.58;;;25.58;;
47513;SDS011;33951;51.988;5.910;2022-11-11T07:58:30;51.03;;;27.98;;
47513;SDS011;33951;51.988;5.910;2022-11-11T08:00:59;39.10;;;25.92;;
47513;SDS011;33951;51.988;5.910;2022-11-11T08:03:24;40.13;;;26.48;;
47513;SDS011;33951;51.988;5.910;2022-11-11T08:05:50;38.80;;;25.10;;
47513;SDS011;33951;51.988;5.910;2022-11-11T08:08:16;39.58;;;26.08;;
47513;SDS011;33951;51.988;5.910;2022-11-11T08:10:49;43.33;;;26.35;;
47513;SDS011;33951;51.988;5.910;2022-11-11T08:13:17;41.17;;;25.92;;
47513;SDS011;33951;51.988;5.910;2022-11-11T08:16:01;39.17;;;25.67;;
47513;SDS011;33951;51.988;5.910;2022-11-11T08:18:30;44.33;;;26.50;;
47513;SDS011;33951;51.988;5.910;2022-11-11T08:20:56;36.95;;;25.35;;
47513;SDS011;33951;51.988;5.910;2022-11-11T08:23:22;39.28;;;27.33;;
47513;SDS011;33951;51.988;5.910;2022-11-11T08:26:00;41.38;;;26.55;;
47513;SDS011;33951;51.988;5.910;2022-11-11T08:28:31;40.20;;;25.92;;
47513;SDS011;33951;51.988;5.910;2022-11-11T08:33:49;38.15;;;24.27;;
47513;SDS011;33951;51.988;5.910;2022-11-11T08:36:15;38.38;;;24.30;;
47513;SDS011;33951;51.988;5.910;2022-11-11T08:38:43;35.13;;;23.15;;
47513;SDS011;33951;51.988;5.910;2022-11-11T08:41:12;38.90;;;24.48;;
47513;SDS011;33951;51.988;5.910;2022-11-11T08:43:46;36.15;;;22.30;;
47513;SDS011;33951;51.988;5.910;2022-11-11T08:46:21;32.30;;;21.15;;
47513;SDS011;33951;51.988;5.910;2022-11-11T08:48:48;28.90;;;19.80;;
47513;SDS011;33951;51.988;5.910;2022-11-11T08:51:16;30.40;;;19.73;;
47513;SDS011;33951;51.988;5.910;2022-11-11T08:53:42;29.50;;;19.10;;
47513;SDS011;33951;51.988;5.910;2022-11-11T08:56:08;27.15;;;17.67;;
47513;SDS011;33951;51.988;5.910;2022-11-11T08:58:43;30.40;;;17.65;;
47513;SDS011;33951;51.988;5.910;2022-11-11T09:01:14;28.88;;;18.05;;
47513;SDS011;33951;51.988;5.910;2022-11-11T09:03:45;31.88;;;18.67;;
47513;SDS011;33951;51.988;5.910;2022-11-11T09:08:42;24.17;;;16.45;;
47513;SDS011;33951;51.988;5.910;2022-11-11T09:11:11;27.90;;;20.50;;
47513;SDS011;33951;51.988;5.910;2022-11-11T09:13:37;24.92;;;15.82;;
47513;SDS011;33951;51.988;5.910;2022-11-11T09:16:04;24.70;;;16.00;;
47513;SDS011;33951;51.988;5.910;2022-11-11T09:18:32;23.65;;;15.32;;
47513;SDS011;33951;51.988;5.910;2022-11-11T09:20:58;22.55;;;14.50;;
47513;SDS011;33951;51.988;5.910;2022-11-11T09:23:26;33.00;;;16.67;;
47513;SDS011;33951;51.988;5.910;2022-11-11T09:25:51;28.10;;;16.38;;
47513;SDS011;33951;51.988;5.910;2022-11-11T09:28:17;23.40;;;15.95;;
47513;SDS011;33951;51.988;5.910;2022-11-11T09:30:42;25.80;;;15.73;;
47513;SDS011;33951;51.988;5.910;2022-11-11T09:33:08;23.25;;;14.60;;
47513;SDS011;33951;51.988;5.910;2022-11-11T09:38:04;23.92;;;14.90;;
47513;SDS011;33951;51.988;5.910;2022-11-11T09:40:48;20.25;;;13.75;;
47513;SDS011;33951;51.988;5.910;2022-11-11T09:51:21;24.92;;;16.20;;
47513;SDS011;33951;51.988;5.910;2022-11-11T09:53:51;27.63;;;13.45;;
47513;SDS011;33951;51.988;5.910;2022-11-11T09:56:22;21.55;;;12.68;;
47513;SDS011;33951;51.988;5.910;2022-11-11T09:58:58;17.45;;;10.82;;
47513;SDS011;33951;51.988;5.910;2022-11-11T10:01:33;18.90;;;11.55;;
47513;SDS011;33951;51.988;5.910;2022-11-11T10:06:38;18.98;;;12.70;;
47513;SDS011;33951;51.988;5.910;2022-11-11T10:09:14;16.63;;;11.45;;
47513;SDS011;33951;51.988;5.910;2022-11-11T10:14:35;18.88;;;11.30;;
47513;SDS011;33951;51.988;5.910;2022-11-11T10:19:49;15.50;;;11.13;;
47513;SDS011;33951;51.988;5.910;2022-11-11T10:22:36;17.60;;;10.90;;
47513;SDS011;33951;51.988;5.910;2022-11-11T10:25:17;16.35;;;10.95;;
47513;SDS011;33951;51.988;5.910;2022-11-11T10:27:48;17.10;;;10.63;;
47513;SDS011;33951;51.988;5.910;2022-11-11T10:32:52;15.98;;;11.27;;
47513;SDS011;33951;51.988;5.910;2022-11-11T10:35:28;16.27;;;11.23;;
47513;SDS011;33951;51.988;5.910;2022-11-11T10:41:13;13.45;;;9.02;;
47513;SDS011;33951;51.988;5.910;2022-11-11T10:43:49;12.32;;;8.98;;
47513;SDS011;33951;51.988;5.910;2022-11-11T10:48:59;12.77;;;8.27;;
47513;SDS011;33951;51.988;5.910;2022-11-11T10:51:36;16.77;;;9.45;;
47513;SDS011;33951;51.988;5.910;2022-11-11T10:54:11;13.77;;;7.78;;
47513;SDS011;33951;51.988;5.910;2022-11-11T10:56:55;11.40;;;7.93;;
47513;SDS011;33951;51.988;5.910;2022-11-11T11:02:04;10.68;;;7.07;;
47513;SDS011;33951;51.988;5.910;2022-11-11T11:04:42;12.50;;;8.45;;
47513;SDS011;33951;51.988;5.910;2022-11-11T11:07:16;10.43;;;7.05;;
47513;SDS011;33951;51.988;5.910;2022-11-11T11:09:57;12.88;;;8.05;;
47513;SDS011;33951;51.988;5.910;2022-11-11T11:15:03;14.57;;;8.40;;
47513;SDS011;33951;51.988;5.910;2022-11-11T11:18:08;9.52;;;7.63;;
47513;SDS011;33951;51.988;5.910;2022-11-11T11:20:30;13.38;;;8.50;;
47513;SDS011;33951;51.988;5.910;2022-11-11T11:22:56;20.33;;;9.00;;
47513;SDS011;33951;51.988;5.910;2022-11-11T11:25:24;10.55;;;7.20;;
47513;SDS011;33951;51.988;5.910;2022-11-11T11:28:03;11.45;;;7.38;;
47513;SDS011;33951;51.988;5.910;2022-11-11T11:30:34;9.57;;;6.22;;
47513;SDS011;33951;51.988;5.910;2022-11-11T11:33:03;10.82;;;7.40;;
47513;SDS011;33951;51.988;5.910;2022-11-11T11:35:32;10.57;;;6.60;;
47513;SDS011;33951;51.988;5.910;2022-11-11T11:38:06;10.05;;;6.50;;
47513;SDS011;33951;51.988;5.910;2022-11-11T11:43:56;10.90;;;6.57;;
47513;SDS011;33951;51.988;5.910;2022-11-11T11:57:07;15.48;;;8.60;;
47513;SDS011;33951;51.988;5.910;2022-11-11T11:59:55;10.95;;;6.80;;
47513;SDS011;33951;51.988;5.910;2022-11-11T12:05:25;13.90;;;8.00;;
47513;SDS011;33951;51.988;5.910;2022-11-11T12:08:02;10.90;;;6.97;;
47513;SDS011;33951;51.988;5.910;2022-11-11T12:21:57;12.02;;;7.30;;
47513;SDS011;33951;51.988;5.910;2022-11-11T12:24:36;8.45;;;6.75;;
47513;SDS011;33951;51.988;5.910;2022-11-11T12:32:48;9.40;;;5.60;;
47513;SDS011;33951;51.988;5.910;2022-11-11T12:44:09;7.45;;;5.70;;
47513;SDS011;33951;51.988;5.910;2022-11-11T12:58:58;8.60;;;5.60;;
47513;SDS011;33951;51.988;5.910;2022-11-11T13:01:50;8.23;;;5.22;;
47513;SDS011;33951;51.988;5.910;2022-11-11T13:05:09;9.88;;;5.57;;
47513;SDS011;33951;51.988;5.910;2022-11-11T13:11:05;7.68;;;4.60;;
47513;SDS011;33951;51.988;5.910;2022-11-11T13:16:27;9.00;;;5.47;;
47513;SDS011;33951;51.988;5.910;2022-11-11T13:18:54;5.97;;;4.60;;
47513;SDS011;33951;51.988;5.910;2022-11-11T13:21:42;10.82;;;5.05;;
47513;SDS011;33951;51.988;5.910;2022-11-11T13:24:11;8.85;;;5.18;;
47513;SDS011;33951;51.988;5.910;2022-11-11T13:26:44;12.60;;;5.30;;
47513;SDS011;33951;51.988;5.910;2022-11-11T13:32:14;8.25;;;5.60;;
47513;SDS011;33951;51.988;5.910;2022-11-11T13:34:43;10.25;;;5.53;;
47513;SDS011;33951;51.988;5.910;2022-11-11T13:37:19;6.30;;;5.07;;
47513;SDS011;33951;51.988;5.910;2022-11-11T13:40:04;7.32;;;5.15;;
47513;SDS011;33951;51.988;5.910;2022-11-11T13:42:35;8.45;;;5.05;;
47513;SDS011;33951;51.988;5.910;2022-11-11T13:45:18;6.93;;;4.53;;
47513;SDS011;33951;51.988;5.910;2022-11-11T13:47:54;10.05;;;4.88;;
47513;SDS011;33951;51.988;5.910;2022-11-11T13:50:27;9.05;;;5.18;;
47513;SDS011;33951;51.988;5.910;2022-11-11T13:53:11;7.43;;;4.85;;
47513;SDS011;33951;51.988;5.910;2022-11-11T13:56:02;10.45;;;5.20;;
47513;SDS011;33951;51.988;5.910;2022-11-11T14:01:05;9.70;;;4.47;;
47513;SDS011;33951;51.988;5.910;2022-11-11T14:06:28;11.43;;;5.10;;
47513;SDS011;33951;51.988;5.910;2022-11-11T14:09:00;7.47;;;4.57;;
47513;SDS011;33951;51.988;5.910;2022-11-11T14:11:28;8.95;;;4.38;;
47513;SDS011;33951;51.988;5.910;2022-11-11T14:19:30;7.20;;;4.20;;
47513;SDS011;33951;51.988;5.910;2022-11-11T14:22:26;6.60;;;4.07;;
47513;SDS011;33951;51.988;5.910;2022-11-11T14:24:49;6.25;;;4.20;;
47513;SDS011;33951;51.988;5.910;2022-11-11T14:27:15;8.32;;;4.05;;
47513;SDS011;33951;51.988;5.910;2022-11-11T14:29:53;7.68;;;4.15;;
47513;SDS011;33951;51.988;5.910;2022-11-11T14:38:50;7.25;;;3.70;;
47513;SDS011;33951;51.988;5.910;2022-11-11T14:49:57;9.50;;;3.97;;
47513;SDS011;33951;51.988;5.910;2022-11-11T14:52:46;5.40;;;3.78;;
47513;SDS011;33951;51.988;5.910;2022-11-11T14:55:41;9.20;;;4.13;;
47513;SDS011;33951;51.988;5.910;2022-11-11T14:58:33;7.35;;;3.40;;
47513;SDS011;33951;51.988;5.910;2022-11-11T15:01:23;10.98;;;5.45;;
47513;SDS011;33951;51.988;5.910;2022-11-11T15:04:59;9.60;;;4.60;;
47513;SDS011;33951;51.988;5.910;2022-11-11T15:10:28;8.57;;;4.15;;
47513;SDS011;33951;51.988;5.910;2022-11-11T15:18:58;6.75;;;4.22;;
47513;SDS011;33951;51.988;5.910;2022-11-11T15:31:31;7.18;;;5.15;;
47513;SDS011;33951;51.988;5.910;2022-11-11T15:37:04;5.15;;;3.63;;
47513;SDS011;33951;51.988;5.910;2022-11-11T15:39:41;6.95;;;3.83;;
47513;SDS011;33951;51.988;5.910;2022-11-11T15:42:42;7.28;;;4.60;;
47513;SDS011;33951;51.988;5.910;2022-11-11T15:45:34;5.60;;;3.72;;
47513;SDS011;33951;51.988;5.910;2022-11-11T15:48:27;6.18;;;4.00;;
47513;SDS011;33951;51.988;5.910;2022-11-11T15:54:17;8.48;;;4.50;;
47513;SDS011;33951;51.988;5.910;2022-11-11T16:00:29;48.35;;;33.10;;
47513;SDS011;33951;51.988;5.910;2022-11-11T16:03:28;19.92;;;11.60;;
47513;SDS011;33951;51.988;5.910;2022-11-11T16:06:04;14.30;;;9.38;;
47513;SDS011;33951;51.988;5.910;2022-11-11T16:08:42;9.63;;;5.60;;
47513;SDS011;33951;51.988;5.910;2022-11-11T16:11:12;11.77;;;5.50;;
47513;SDS011;33951;51.988;5.910;2022-11-11T16:13:54;8.27;;;5.78;;
47513;SDS011;33951;51.988;5.910;2022-11-11T16:16:31;11.13;;;6.28;;
47513;SDS011;33951;51.988;5.910;2022-11-11T16:21:44;11.32;;;6.55;;
47513;SDS011;33951;51.988;5.910;2022-11-11T16:24:29;15.43;;;7.57;;
47513;SDS011;33951;51.988;5.910;2022-11-11T16:26:57;20.77;;;11.27;;
47513;SDS011;33951;51.988;5.910;2022-11-11T16:29:33;41.15;;;24.98;;
47513;SDS011;33951;51.988;5.910;2022-11-11T16:34:48;28.65;;;20.55;;
47513;SDS011;33951;51.988;5.910;2022-11-11T16:37:16;28.08;;;20.52;;
47513;SDS011;33951;51.988;5.910;2022-11-11T16:39:50;24.23;;;15.55;;
47513;SDS011;33951;51.988;5.910;2022-11-11T16:47:59;22.35;;;16.10;;
47513;SDS011;33951;51.988;5.910;2022-11-11T16:50:25;23.85;;;15.35;;
47513;SDS011;33951;51.988;5.910;2022-11-11T16:53:04;21.55;;;14.15;;
47513;SDS011;33951;51.988;5.910;2022-11-11T16:58:13;15.23;;;11.30;;
47513;SDS011;33951;51.988;5.910;2022-11-11T17:01:00;18.67;;;12.30;;
47513;SDS011;33951;51.988;5.910;2022-11-11T17:06:47;17.05;;;10.85;;
47513;SDS011;33951;51.988;5.910;2022-11-11T17:09:35;14.02;;;9.82;;
47513;SDS011;33951;51.988;5.910;2022-11-11T17:12:09;15.15;;;9.57;;
47513;SDS011;33951;51.988;5.910;2022-11-11T17:14:37;16.45;;;10.25;;
47513;SDS011;33951;51.988;5.910;2022-11-11T17:17:09;15.43;;;10.23;;
47513;SDS011;33951;51.988;5.910;2022-11-11T17:19:35;16.33;;;9.48;;
47513;SDS011;33951;51.988;5.910;2022-11-11T17:22:07;13.25;;;9.20;;
47513;SDS011;33951;51.988;5.910;2022-11-11T17:24:38;13.43;;;8.77;;
47513;SDS011;33951;51.988;5.910;2022-11-11T17:29:40;13.48;;;9.70;;
47513;SDS011;33951;51.988;5.910;2022-11-11T17:32:08;15.40;;;10.63;;
47513;SDS011;33951;51.988;5.910;2022-11-11T17:37:12;15.15;;;10.27;;
47513;SDS011;33951;51.988;5.910;2022-11-11T17:39:37;14.90;;;10.50;;
47513;SDS011;33951;51.988;5.910;2022-11-11T17:42:08;15.57;;;11.65;;
47513;SDS011;33951;51.988;5.910;2022-11-11T17:47:10;27.60;;;17.20;;
47513;SDS011;33951;51.988;5.910;2022-11-11T17:49:39;28.88;;;16.10;;
47513;SDS011;33951;51.988;5.910;2022-11-11T17:52:10;22.45;;;12.40;;
47513;SDS011;33951;51.988;5.910;2022-11-11T17:54:47;16.45;;;12.38;;
47513;SDS011;33951;51.988;5.910;2022-11-11T17:57:15;18.20;;;12.05;;
47513;SDS011;33951;51.988;5.910;2022-11-11T17:59:41;18.40;;;12.40;;
47513;SDS011;33951;51.988;5.910;2022-11-11T18:02:12;19.90;;;12.68;;
47513;SDS011;33951;51.988;5.910;2022-11-11T18:04:39;20.42;;;13.60;;
47513;SDS011;33951;51.988;5.910;2022-11-11T18:07:06;19.92;;;12.30;;
47513;SDS011;33951;51.988;5.910;2022-11-11T18:09:35;19.98;;;14.32;;
47513;SDS011;33951;51.988;5.910;2022-11-11T18:12:03;20.85;;;14.30;;
47513;SDS011;33951;51.988;5.910;2022-11-11T18:17:01;54.22;;;38.42;;
47513;SDS011;33951;51.988;5.910;2022-11-11T18:19:29;33.38;;;21.88;;
47513;SDS011;33951;51.988;5.910;2022-11-11T18:21:55;36.38;;;21.55;;
47513;SDS011;33951;51.988;5.910;2022-11-11T18:24:20;24.92;;;17.13;;
47513;SDS011;33951;51.988;5.910;2022-11-11T18:26:46;23.50;;;15.95;;
47513;SDS011;33951;51.988;5.910;2022-11-11T18:29:12;28.52;;;15.95;;
47513;SDS011;33951;51.988;5.910;2022-11-11T18:31:37;22.02;;;17.33;;
47513;SDS011;33951;51.988;5.910;2022-11-11T18:34:03;26.35;;;18.08;;
47513;SDS011;33951;51.988;5.910;2022-11-11T18:36:32;28.27;;;18.80;;
47513;SDS011;33951;51.988;5.910;2022-11-11T18:38:57;27.33;;;18.52;;
47513;SDS011;33951;51.988;5.910;2022-11-11T18:41:23;39.45;;;23.63;;
47513;SDS011;33951;51.988;5.910;2022-11-11T18:43:52;31.25;;;20.65;;
47513;SDS011;33951;51.988;5.910;2022-11-11T18:46:22;52.83;;;29.63;;
47513;SDS011;33951;51.988;5.910;2022-11-11T18:48:53;74.68;;;39.25;;
47513;SDS011;33951;51.988;5.910;2022-11-11T18:51:19;70.10;;;37.17;;
47513;SDS011;33951;51.988;5.910;2022-11-11T18:53:46;117.18;;;56.30;;
47513;SDS011;33951;51.988;5.910;2022-11-11T18:56:13;83.60;;;40.72;;
47513;SDS011;33951;51.988;5.910;2022-11-11T18:58:40;62.92;;;32.17;;
47513;SDS011;33951;51.988;5.910;2022-11-11T19:01:10;33.75;;;19.15;;
47513;SDS011;33951;51.988;5.910;2022-11-11T19:03:39;26.95;;;16.75;;
47513;SDS011;33951;51.988;5.910;2022-11-11T19:06:07;22.70;;;14.95;;
47513;SDS011;33951;51.988;5.910;2022-11-11T19:08:35;24.27;;;13.65;;
47513;SDS011;33951;51.988;5.910;2022-11-11T19:11:02;17.30;;;13.43;;
47513;SDS011;33951;51.988;5.910;2022-11-11T19:13:32;18.13;;;12.60;;
47513;SDS011;33951;51.988;5.910;2022-11-11T19:16:08;20.80;;;12.02;;
47513;SDS011;33951;51.988;5.910;2022-11-11T19:18:37;54.65;;;29.70;;
47513;SDS011;33951;51.988;5.910;2022-11-11T19:21:10;56.80;;;30.38;;
47513;SDS011;33951;51.988;5.910;2022-11-11T19:23:43;61.88;;;32.42;;
47513;SDS011;33951;51.988;5.910;2022-11-11T19:26:10;64.20;;;35.97;;
47513;SDS011;33951;51.988;5.910;2022-11-11T19:28:36;51.65;;;29.27;;
47513;SDS011;33951;51.988;5.910;2022-11-11T19:31:04;44.85;;;25.40;;
47513;SDS011;33951;51.988;5.910;2022-11-11T19:33:31;30.33;;;17.80;;
47513;SDS011;33951;51.988;5.910;2022-11-11T19:35:59;29.05;;;17.88;;
47513;SDS011;33951;51.988;5.910;2022-11-11T19:38:29;24.13;;;17.17;;
47513;SDS011;33951;51.988;5.910;2022-11-11T19:41:04;21.20;;;15.82;;
47513;SDS011;33951;51.988;5.910;2022-11-11T19:43:34;27.75;;;16.40;;
47513;SDS011;33951;51.988;5.910;2022-11-11T19:46:00;26.38;;;17.98;;
47513;SDS011;33951;51.988;5.910;2022-11-11T19:48:27;26.35;;;18.25;;
47513;SDS011;33951;51.988;5.910;2022-11-11T19:50:52;22.92;;;15.05;;
47513;SDS011;33951;51.988;5.910;2022-11-11T19:53:18;24.98;;;17.42;;
47513;SDS011;33951;51.988;5.910;2022-11-11T19:55:56;24.55;;;17.65;;
47513;SDS011;33951;51.988;5.910;2022-11-11T19:58:26;22.30;;;16.65;;
47513;SDS011;33951;51.988;5.910;2022-11-11T20:00:52;25.75;;;18.02;;
47513;SDS011;33951;51.988;5.910;2022-11-11T20:03:18;79.93;;;37.67;;
47513;SDS011;33951;51.988;5.910;2022-11-11T20:05:44;49.33;;;27.20;;
47513;SDS011;33951;51.988;5.910;2022-11-11T20:08:10;34.92;;;22.00;;
47513;SDS011;33951;51.988;5.910;2022-11-11T20:10:36;31.33;;;19.52;;
47513;SDS011;33951;51.988;5.910;2022-11-11T20:13:10;28.90;;;20.08;;
47513;SDS011;33951;51.988;5.910;2022-11-11T20:15:36;28.13;;;17.63;;
47513;SDS011;33951;51.988;5.910;2022-11-11T20:18:02;26.58;;;16.23;;
47513;SDS011;33951;51.988;5.910;2022-11-11T20:20:30;24.58;;;17.55;;
47513;SDS011;33951;51.988;5.910;2022-11-11T20:22:55;23.13;;;15.90;;
47513;SDS011;33951;51.988;5.910;2022-11-11T20:25:21;17.48;;;13.65;;
47513;SDS011;33951;51.988;5.910;2022-11-11T20:27:47;17.30;;;12.75;;
47513;SDS011;33951;51.988;5.910;2022-11-11T20:30:16;19.10;;;13.18;;
47513;SDS011;33951;51.988;5.910;2022-11-11T20:32:41;21.42;;;12.93;;
47513;SDS011;33951;51.988;5.910;2022-11-11T20:35:08;18.30;;;12.20;;
47513;SDS011;33951;51.988;5.910;2022-11-11T20:37:34;20.00;;;12.65;;
47513;SDS011;33951;51.988;5.910;2022-11-11T20:39:59;18.70;;;13.52;;
47513;SDS011;33951;51.988;5.910;2022-11-11T20:42:25;29.42;;;18.80;;
47513;SDS011;33951;51.988;5.910;2022-11-11T20:44:51;27.67;;;18.35;;
47513;SDS011;33951;51.988;5.910;2022-11-11T20:47:16;18.15;;;12.77;;
47513;SDS011;33951;51.988;5.910;2022-11-11T20:49:42;21.23;;;13.20;;
47513;SDS011;33951;51.988;5.910;2022-11-11T20:52:11;22.45;;;14.30;;
47513;SDS011;33951;51.988;5.910;2022-11-11T20:54:37;26.40;;;16.42;;
47513;SDS011;33951;51.988;5.910;2022-11-11T20:57:03;23.13;;;15.13;;
47513;SDS011;33951;51.988;5.910;2022-11-11T20:59:31;23.10;;;16.05;;
47513;SDS011;33951;51.988;5.910;2022-11-11T21:01:57;20.52;;;13.93;;
47513;SDS011;33951;51.988;5.910;2022-11-11T21:04:23;15.02;;;11.90;;
47513;SDS011;33951;51.988;5.910;2022-11-11T21:06:48;18.17;;;13.27;;
47513;SDS011;33951;51.988;5.910;2022-11-11T21:09:14;18.85;;;12.70;;
47513;SDS011;33951;51.988;5.910;2022-11-11T21:11:42;20.40;;;13.60;;
47513;SDS011;33951;51.988;5.910;2022-11-11T21:14:08;17.65;;;12.48;;
47513;SDS011;33951;51.988;5.910;2022-11-11T21:16:33;19.38;;;13.35;;
47513;SDS011;33951;51.988;5.910;2022-11-11T21:18:59;20.13;;;12.95;;
47513;SDS011;33951;51.988;5.910;2022-11-11T21:21:29;20.33;;;12.65;;
47513;SDS011;33951;51.988;5.910;2022-11-11T21:26:23;23.08;;;13.07;;
47513;SDS011;33951;51.988;5.910;2022-11-11T21:28:49;20.42;;;12.88;;
47513;SDS011;33951;51.988;5.910;2022-11-11T21:33:49;32.45;;;21.85;;
47513;SDS011;33951;51.988;5.910;2022-11-11T21:36:16;22.27;;;15.40;;
47513;SDS011;33951;51.988;5.910;2022-11-11T21:38:42;16.63;;;12.80;;
47513;SDS011;33951;51.988;5.910;2022-11-11T21:41:11;22.05;;;13.70;;
47513;SDS011;33951;51.988;5.910;2022-11-11T21:43:41;18.73;;;12.82;;
47513;SDS011;33951;51.988;5.910;2022-11-11T21:46:13;18.30;;;12.77;;
47513;SDS011;33951;51.988;5.910;2022-11-11T21:48:42;19.25;;;13.05;;
47513;SDS011;33951;51.988;5.910;2022-11-11T21:51:12;17.55;;;12.13;;
47513;SDS011;33951;51.988;5.910;2022-11-11T21:53:53;20.67;;;12.30;;
47513;SDS011;33951;51.988;5.910;2022-11-11T21:56:21;14.60;;;11.70;;
47513;SDS011;33951;51.988;5.910;2022-11-11T21:58:51;15.60;;;11.45;;
47513;SDS011;33951;51.988;5.910;2022-11-11T22:01:34;18.77;;;11.45;;
47513;SDS011;33951;51.988;5.910;2022-11-11T22:04:03;14.68;;;10.10;;
47513;SDS011;33951;51.988;5.910;2022-11-11T22:06:31;20.27;;;10.98;;
47513;SDS011;33951;51.988;5.910;2022-11-11T22:08:58;14.30;;;11.55;;
47513;SDS011;33951;51.988;5.910;2022-11-11T22:11:25;20.83;;;10.80;;
47513;SDS011;33951;51.988;5.910;2022-11-11T22:14:06;11.85;;;9.15;;
47513;SDS011;33951;51.988;5.910;2022-11-11T22:16:33;19.05;;;11.00;;
47513;SDS011;33951;51.988;5.910;2022-11-11T22:19:01;15.63;;;10.18;;
47513;SDS011;33951;51.988;5.910;2022-11-11T22:21:29;16.05;;;11.32;;
47513;SDS011;33951;51.988;5.910;2022-11-11T22:24:00;18.35;;;10.98;;
47513;SDS011;33951;51.988;5.910;2022-11-11T22:26:34;17.33;;;11.02;;
47513;SDS011;33951;51.988;5.910;2022-11-11T22:29:02;14.55;;;10.18;;
47513;SDS011;33951;51.988;5.910;2022-11-11T22:31:29;17.58;;;10.82;;
47513;SDS011;33951;51.988;5.910;2022-11-11T22:33:56;16.70;;;10.68;;
47513;SDS011;33951;51.988;5.910;2022-11-11T22:36:25;20.25;;;13.00;;
47513;SDS011;33951;51.988;5.910;2022-11-11T22:38:51;23.00;;;15.85;;
47513;SDS011;33951;51.988;5.910;2022-11-11T22:41:18;23.23;;;13.07;;
47513;SDS011;33951;51.988;5.910;2022-11-11T22:43:45;15.30;;;10.82;;
47513;SDS011;33951;51.988;5.910;2022-11-11T22:46:13;14.93;;;10.88;;
47513;SDS011;33951;51.988;5.910;2022-11-11T22:48:49;15.85;;;11.35;;
47513;SDS011;33951;51.988;5.910;2022-11-11T22:51:24;22.75;;;11.77;;
47513;SDS011;33951;51.988;5.910;2022-11-11T22:54:04;23.73;;;15.27;;
47513;SDS011;33951;51.988;5.910;2022-11-11T22:56:31;23.10;;;14.23;;
47513;SDS011;33951;51.988;5.910;2022-11-11T22:58:58;24.52;;;14.70;;
47513;SDS011;33951;51.988;5.910;2022-11-11T23:01:31;20.08;;;11.75;;
47513;SDS011;33951;51.988;5.910;2022-11-11T23:03:58;16.25;;;11.52;;
47513;SDS011;33951;51.988;5.910;2022-11-11T23:06:26;23.80;;;13.40;;
47513;SDS011;33951;51.988;5.910;2022-11-11T23:08:56;19.25;;;12.75;;
47513;SDS011;33951;51.988;5.910;2022-11-11T23:11:23;20.80;;;13.00;;
47513;SDS011;33951;51.988;5.910;2022-11-11T23:13:50;20.60;;;12.00;;
47513;SDS011;33951;51.988;5.910;2022-11-11T23:16:21;18.90;;;12.20;;
47513;SDS011;33951;51.988;5.910;2022-11-11T23:18:46;19.90;;;13.98;;
47513;SDS011;33951;51.988;5.910;2022-11-11T23:21:13;20.10;;;13.50;;
47513;SDS011;33951;51.988;5.910;2022-11-11T23:23:46;24.10;;;13.18;;
47513;SDS011;33951;51.988;5.910;2022-11-11T23:26:18;16.88;;;11.52;;
47513;SDS011;33951;51.988;5.910;2022-11-11T23:28:48;20.38;;;13.18;;
47513;SDS011;33951;51.988;5.910;2022-11-11T23:31:15;19.05;;;12.45;;
47513;SDS011;33951;51.988;5.910;2022-11-11T23:33:59;18.75;;;13.90;;
47513;SDS011;33951;51.988;5.910;2022-11-11T23:36:26;19.65;;;13.55;;
47513;SDS011;33951;51.988;5.910;2022-11-11T23:38:53;19.00;;;13.90;;
47513;SDS011;33951;51.988;5.910;2022-11-11T23:41:22;19.23;;;11.95;;
47513;SDS011;33951;51.988;5.910;2022-11-11T23:43:53;24.15;;;15.13;;
47513;SDS011;33951;51.988;5.910;2022-11-11T23:46:18;21.85;;;12.90;;
47513;SDS011;33951;51.988;5.910;2022-11-11T23:48:44;20.98;;;13.73;;
47513;SDS011;33951;51.988;5.910;2022-11-11T23:51:10;26.80;;;17.08;;
47513;SDS011;33951;51.988;5.910;2022-11-11T23:53:36;20.90;;;13.63;;
47513;SDS011;33951;51.988;5.910;2022-11-11T23:56:02;24.95;;;15.68;;
47513;SDS011;33951;51.988;5.910;2022-11-11T23:58:29;24.70;;;15.35;;
